Terminal Aerodrome Forecast
Issued by NWS

Home | Current Version | Previous Version | Text Only | Print | Product List | Glossary On
Versions: 1 2 3 4 5 6 7 8 9 10 11 12 13 14 15 16
000
FTUS44 KMAF 310200 AAA
TAFINK
TAF AMD
KINK 310204Z 3102/3124 02013KT P6SM FEW200
     FM311100 07011KT P6SM SCT200
      TEMPO 3111/3113 OVC030
     FM311900 10010KT P6SM SCT200=

USA.gov is the U.S. government's official web portal to all federal, state and local government web resources and services.